South Petherton, United Kingdom
Current Conditions -  °F | °C
As of 2:50 PM on Friday 28 Nov 2014 (Local Time) from EGDY Reporting Station
Haze Haze  
Wind Chill: 54°   Ceiling: 1400
Heat Index: 54°   Visibility: 5mi
Dew Point: 48°   Wind: 13mph
Humidity: 82%   Direction: 70°ENE
Pressure: 29.53"   Gusts: NA
Location:  50.95°N, 2.81°W
Report Text: EGDY 281450Z 07011KT 8000 HZ SCT010 BKN014 12/09 Q1000 GRN NOSIG
Loading
Personal Weather Stations






























Interactive Weather Map New forecast layout! Learn more

10-Day Weather Forecast

Advertisements
Track Severe Weather on mobile